Time;durP1;ratioP1;P1;durP2;ratioP2;P2;SDS_P1;SDS_P2;PMS_P1;PMS_P2;Temp;Humidity;BMP_temperature;BMP_pressure;BME280_temperature;BME280_humidity;BME280_pressure;Samples;Min_cycle;Max_cycle;Signal;HPM_P1;HPM_P2
2023/07/05 00:00:50;;;;;;;6.53;2.22;;;25.50;57.40;;;;;;10512527;28;20088;-32
2023/07/05 00:05:52;;;;;;;3.30;2.15;;;25.60;57.30;;;;;;10527625;28;20082;-32
2023/07/05 00:11:03;;;;;;;3.90;2.28;;;25.60;57.40;;;;;;10527103;28;20048;-33
2023/07/05 00:16:06;;;;;;;3.92;2.28;;;25.50;57.60;;;;;;10520789;28;20063;-34
2023/07/05 00:21:10;;;;;;;4.22;2.30;;;25.50;57.70;;;;;;10515152;28;20079;-33
2023/07/05 00:26:13;;;;;;;3.25;2.30;;;25.50;57.60;;;;;;10527360;28;20071;-36
2023/07/05 00:31:16;;;;;;;4.68;1.92;;;25.50;57.90;;;;;;10524507;28;20071;-39
2023/07/05 00:36:18;;;;;;;6.82;2.95;;;25.30;58.00;;;;;;10512999;28;20766;-39
2023/07/05 00:41:20;;;;;;;5.10;2.67;;;25.20;58.30;;;;;;10506836;28;20048;-37
2023/07/05 00:46:27;;;;;;;4.35;2.58;;;24.90;59.00;;;;;;10525555;28;20040;-35
2023/07/05 00:51:32;;;;;;;5.82;3.20;;;24.90;58.80;;;;;;10536311;28;20067;-33
2023/07/05 00:56:40;;;;;;;3.75;2.38;;;24.80;60.00;;;;;;10530933;28;20132;-38
2023/07/05 01:01:44;;;;;;;4.47;2.15;;;24.10;63.40;;;;;;10528758;28;20075;-37
2023/07/05 01:06:47;;;;;;;4.53;2.10;;;22.90;66.60;;;;;;10519524;28;20127;-35
2023/07/05 01:11:55;;;;;;;12.95;2.15;;;21.40;73.70;;;;;;10506138;28;20215;-36
2023/07/05 01:17:10;;;;;;;11.05;2.25;;;19.80;81.10;;;;;;10513685;28;20754;-34
2023/07/05 01:22:21;;;;;;;14.55;2.90;;;20.00;85.10;;;;;;10489887;28;20048;-33
2023/07/05 01:28:03;;;;;;;9.80;2.38;;;19.50;87.50;;;;;;10520042;28;20113;-34
2023/07/05 01:33:09;;;;;;;;;;;19.50;89.80;;;;;;10414440;28;20153;-35
2023/07/05 01:38:11;;;;;;;5.20;1.95;;;19.80;86.50;;;;;;10527779;28;20015;-33
2023/07/05 01:43:15;;;;;;;11.32;2.65;;;17.70;95.00;;;;;;10512681;28;20067;-31
2023/07/05 01:48:27;;;;;;;8.88;2.20;;;17.90;97.30;;;;;;10508386;28;20058;-36
2023/07/05 01:53:35;;;;;;;12.35;2.58;;;19.00;93.70;;;;;;10532560;28;20083;-36
2023/07/05 01:58:43;;;;;;;8.25;1.70;;;18.90;94.40;;;;;;10530443;28;20462;-35
2023/07/05 02:03:49;;;;;;;14.57;2.28;;;18.70;95.60;;;;;;10508872;28;20408;-35
2023/07/05 02:08:51;;;;;;;10.50;2.42;;;18.40;98.10;;;;;;10504014;28;20538;-34
2023/07/05 02:13:53;;;;;;;7.20;2.10;;;17.50;99.90;;;;;;10524451;28;20083;-35
2023/07/05 02:18:56;;;;;;;3.10;1.55;;;18.30;96.90;;;;;;10522166;28;20075;-37
2023/07/05 02:23:58;;;;;;;10.15;2.55;;;17.90;99.90;;;;;;10508724;28;20068;-40
2023/07/05 02:29:01;;;;;;;10.65;3.65;;;17.40;99.90;;;;;;10513320;28;20071;-35
2023/07/05 02:34:04;;;;;;;;;;;18.40;97.00;;;;;;10521517;28;20416;-37
2023/07/05 02:39:05;;;;;;;;;;;18.30;99.30;;;;;;10515615;28;19959;-37
2023/07/05 02:44:07;;;;;;;5.68;2.50;;;16.70;99.90;;;;;;10522551;28;19931;-37
2023/07/05 02:49:12;;;;;;;8.60;2.00;;;18.40;96.90;;;;;;10516351;28;20067;-33
2023/07/05 02:54:14;;;;;;;6.57;1.95;;;18.00;98.50;;;;;;10509852;28;20060;-33
2023/07/05 03:15:31;;;;;;;3.85;1.92;;;17.00;99.90;;;;;;10501402;27;20143;-32
2023/07/05 03:20:33;;;;;;;3.22;1.48;;;17.10;99.90;;;;;;10522579;28;20079;-36
2023/07/05 03:25:35;;;;;;;7.70;1.57;;;17.80;99.90;;;;;;10519395;28;20044;-35
2023/07/05 03:30:39;;;;;;;10.48;1.70;;;19.30;92.00;;;;;;10530404;28;20536;-32
2023/07/05 03:35:41;;;;;;;8.60;2.35;;;18.30;95.90;;;;;;10542563;28;20127;-34
2023/07/05 03:40:42;;;;;;;8.13;1.63;;;17.80;99.40;;;;;;10520796;28;20582;-33
2023/07/05 03:45:46;;;;;;;11.00;1.73;;;16.10;99.90;;;;;;10526632;28;20125;-33
2023/07/05 03:50:48;;;;;;;7.03;2.08;;;16.30;99.90;;;;;;10525391;28;20489;-34
2023/07/05 03:55:50;;;;;;;6.03;2.20;;;16.00;99.90;;;;;;10522524;28;20048;-37
2023/07/05 04:00:53;;;;;;;11.48;1.50;;;15.80;99.90;;;;;;10529678;28;20098;-34
2023/07/05 04:05:55;;;;;;;14.90;1.70;;;15.80;99.90;;;;;;10523469;28;20040;-32
2023/07/05 04:10:57;;;;;;;12.73;2.03;;;15.60;99.90;;;;;;10523757;28;20056;-34
2023/07/05 04:16:02;;;;;;;18.80;2.92;;;16.40;99.90;;;;;;10527420;28;20576;-31
2023/07/05 04:21:05;;;;;;;12.63;2.50;;;15.60;99.90;;;;;;10534359;28;20090;-36
2023/07/05 04:26:09;;;;;;;10.90;2.72;;;15.70;99.90;;;;;;10496128;28;20036;-33
2023/07/05 04:31:17;;;;;;;13.82;2.65;;;15.50;99.90;;;;;;10502247;28;20044;-33
2023/07/05 04:36:19;;;;;;;13.15;2.30;;;15.20;99.90;;;;;;10504350;28;20534;-34
2023/07/05 04:41:22;;;;;;;6.60;1.83;;;15.60;99.90;;;;;;10497481;28;20110;-34
2023/07/05 04:46:25;;;;;;;16.10;3.08;;;16.20;99.90;;;;;;10497289;28;20501;-34
2023/07/05 04:51:27;;;;;;;10.30;2.67;;;15.30;99.90;;;;;;10494713;28;20048;-33
2023/07/05 04:56:28;;;;;;;12.60;2.30;;;15.10;99.90;;;;;;10502114;28;20131;-33
2023/07/05 05:01:32;;;;;;;13.53;2.23;;;15.70;99.90;;;;;;10496233;28;20044;-35
2023/07/05 05:06:33;;;;;;;10.10;2.58;;;15.00;99.90;;;;;;10485766;28;20051;-34
2023/07/05 05:11:35;;;;;;;11.47;1.73;;;15.80;99.90;;;;;;10494971;28;20060;-32
2023/07/05 05:16:38;;;;;;;23.43;3.80;;;15.10;99.90;;;;;;10487210;28;20587;-33
2023/07/05 05:21:40;;;;;;;18.50;3.55;;;14.30;99.90;;;;;;10487067;28;20037;-35
2023/07/05 05:26:42;;;;;;;11.07;2.20;;;13.80;99.90;;;;;;10495274;28;20139;-36
2023/07/05 05:31:45;;;;;;;19.23;2.40;;;14.40;99.90;;;;;;10493631;28;20087;-38
2023/07/05 05:36:47;;;;;;;9.38;1.95;;;14.10;99.90;;;;;;10493491;28;20360;-33
2023/07/05 05:41:49;;;;;;;11.53;1.53;;;13.90;99.90;;;;;;10483347;28;20564;-33
2023/07/05 05:46:52;;;;;;;7.33;1.33;;;14.40;99.90;;;;;;10501969;28;20105;-35
2023/07/05 05:51:54;;;;;;;19.35;3.42;;;13.30;99.90;;;;;;10483464;28;20087;-31
2023/07/05 05:56:56;;;;;;;19.70;2.95;;;13.80;99.90;;;;;;10478625;28;20421;-32
2023/07/05 06:02:00;;;;;;;26.07;5.57;;;14.00;99.90;;;;;;10484023;28;20147;-33
2023/07/05 06:07:01;;;;;;;27.48;4.15;;;14.30;99.90;;;;;;10500372;28;20119;-34
2023/07/05 06:12:04;;;;;;;25.30;4.55;;;13.60;99.90;;;;;;10484646;28;20403;-39
2023/07/05 06:17:07;;;;;;;21.33;3.50;;;13.60;99.90;;;;;;10478327;28;20636;-38
2023/07/05 06:22:09;;;;;;;23.48;4.13;;;14.00;99.90;;;;;;10484558;28;20075;-34
2023/07/05 06:27:11;;;;;;;22.10;5.03;;;13.60;99.90;;;;;;10482846;28;20123;-33
2023/07/05 06:32:14;;;;;;;20.13;4.63;;;14.60;99.90;;;;;;10491489;28;20472;-32
2023/07/05 06:37:16;;;;;;;19.38;4.30;;;14.20;99.90;;;;;;10488330;28;20048;-32
2023/07/05 06:42:18;;;;;;;22.97;3.83;;;14.30;99.90;;;;;;10488771;28;20127;-33
2023/07/05 06:47:21;;;;;;;16.98;3.55;;;14.50;99.90;;;;;;10489499;28;20462;-35
2023/07/05 06:52:23;;;;;;;15.52;3.05;;;14.30;99.90;;;;;;10505045;28;20426;-32
2023/07/05 06:57:25;;;;;;;21.70;3.00;;;15.20;99.90;;;;;;10485399;28;20087;-33
2023/07/05 07:02:28;;;;;;;14.17;3.53;;;15.00;99.90;;;;;;10478827;28;20131;-31
2023/07/05 07:07:30;;;;;;;13.15;3.15;;;14.50;99.90;;;;;;10487109;28;20051;-35
2023/07/05 07:12:32;;;;;;;10.87;3.20;;;14.50;99.90;;;;;;10482074;28;20150;-34
2023/07/05 07:17:35;;;;;;;13.03;2.80;;;14.40;99.90;;;;;;10481666;28;20394;-32
2023/07/05 07:22:37;;;;;;;11.75;3.20;;;14.50;99.90;;;;;;10484890;28;20469;-33
2023/07/05 07:27:38;;;;;;;11.50;2.83;;;14.60;99.90;;;;;;10504375;28;20040;-39
2023/07/05 07:32:42;;;;;;;19.90;3.67;;;15.10;99.90;;;;;;10485402;28;20048;-34
2023/07/05 07:37:43;;;;;;;9.63;2.05;;;14.70;99.90;;;;;;10494355;28;20036;-34
2023/07/05 07:42:46;;;;;;;11.27;2.65;;;15.80;99.90;;;;;;10493740;28;20139;-33
2023/07/05 07:47:50;;;;;;;9.32;2.53;;;15.60;99.90;;;;;;10485760;28;20048;-32
2023/07/05 07:52:53;;;;;;;12.02;3.30;;;15.20;99.90;;;;;;10490109;28;20102;-33
2023/07/05 07:57:55;;;;;;;14.95;2.75;;;15.90;99.90;;;;;;10489071;28;20111;-33
2023/07/05 08:02:58;;;;;;;19.85;4.55;;;15.60;99.90;;;;;;10493755;28;20070;-34
2023/07/05 08:08:00;;;;;;;10.73;2.00;;;15.70;99.90;;;;;;10492962;28;20110;-33
2023/07/05 08:13:02;;;;;;;15.18;2.50;;;16.10;99.90;;;;;;10490882;28;20080;-36
2023/07/05 08:18:05;;;;;;;10.82;3.20;;;15.90;99.90;;;;;;10504349;28;20040;-33
2023/07/05 08:23:07;;;;;;;11.35;2.35;;;16.30;99.90;;;;;;10497815;28;20497;-33
2023/07/05 08:28:11;;;;;;;11.47;2.23;;;16.30;99.90;;;;;;10494230;28;20049;-34
2023/07/05 08:33:15;;;;;;;17.15;2.70;;;16.20;99.90;;;;;;10489854;28;20438;-35
2023/07/05 08:38:18;;;;;;;9.82;3.10;;;16.40;99.90;;;;;;10494433;28;20090;-33
2023/07/05 08:43:30;;;;;;;17.42;2.58;;;16.50;99.90;;;;;;10493946;28;20070;-36
2023/07/05 08:48:35;;;;;;;7.97;2.78;;;16.40;99.90;;;;;;10490468;28;20151;-38
2023/07/05 08:53:47;;;;;;;9.85;2.47;;;17.40;99.80;;;;;;10500220;28;20114;-36
2023/07/05 08:58:57;;;;;;;15.68;2.85;;;17.10;99.90;;;;;;10500257;28;20450;-35
2023/07/05 09:04:00;;;;;;;14.57;2.10;;;17.00;99.90;;;;;;10500680;28;20082;-37
2023/07/05 09:09:25;;;;;;;13.68;2.22;;;17.10;99.90;;;;;;10502441;28;20059;-34
2023/07/05 09:14:40;;;;;;;16.30;2.38;;;17.70;97.40;;;;;;10482649;28;20096;-35
2023/07/05 09:19:54;;;;;;;12.52;2.40;;;17.50;99.30;;;;;;10499556;28;20097;-33
2023/07/05 09:24:56;;;;;;;8.15;1.58;;;17.60;97.50;;;;;;10487935;28;20090;-36
2023/07/05 09:30:04;;;;;;;10.55;2.10;;;18.20;95.30;;;;;;10480062;28;20057;-36
2023/07/05 09:35:14;;;;;;;10.85;2.33;;;17.80;97.90;;;;;;10500291;28;20134;-36
2023/07/05 09:40:18;;;;;;;10.85;3.28;;;17.80;96.90;;;;;;10490235;28;20544;-35
2023/07/05 09:45:20;;;;;;;15.98;3.05;;;17.80;96.30;;;;;;10494367;28;20648;-33
2023/07/05 09:50:24;;;;;;;11.73;2.08;;;17.60;98.50;;;;;;10495153;28;20040;-32
2023/07/05 09:55:26;;;;;;;10.63;2.38;;;18.50;93.60;;;;;;10491665;28;20048;-35
2023/07/05 10:00:34;;;;;;;12.45;2.45;;;19.00;91.20;;;;;;10489303;28;20143;-34
2023/07/05 10:05:38;;;;;;;6.55;1.63;;;18.40;95.20;;;;;;10481728;28;20441;-38
2023/07/05 10:10:41;;;;;;;11.10;2.10;;;18.00;95.60;;;;;;10482764;28;20048;-35
2023/07/05 10:15:44;;;;;;;12.30;1.90;;;18.60;94.10;;;;;;10490644;28;20060;-35
2023/07/05 10:20:49;;;;;;;8.35;1.95;;;18.00;96.40;;;;;;10490815;28;20087;-36
2023/07/05 10:25:52;;;;;;;10.20;1.80;;;18.50;94.90;;;;;;10498049;28;20056;-32
2023/07/05 10:30:55;;;;;;;13.80;2.13;;;18.30;95.00;;;;;;10496218;28;20198;-34
2023/07/05 10:36:03;;;;;;;11.50;2.35;;;18.20;96.10;;;;;;10485605;28;20557;-30
2023/07/05 10:41:18;;;;;;;11.93;1.42;;;18.50;93.30;;;;;;10488571;28;20140;-37
2023/07/05 10:46:23;;;;;;;9.05;2.10;;;18.40;93.80;;;;;;10488375;28;20045;-34
2023/07/05 10:51:30;;;;;;;6.22;1.90;;;18.00;94.70;;;;;;10486347;28;20048;-33
2023/07/05 10:56:34;;;;;;;11.07;2.20;;;18.70;93.80;;;;;;10489741;28;20398;-37
2023/07/05 11:01:40;;;;;;;5.10;1.35;;;18.50;93.00;;;;;;10497814;28;20127;-35
2023/07/05 11:06:45;;;;;;;17.85;2.25;;;18.80;93.10;;;;;;10487356;28;20072;-35
2023/07/05 11:11:53;;;;;;;8.82;1.90;;;18.70;92.30;;;;;;10500504;28;20159;-36
2023/07/05 11:16:57;;;;;;;9.82;1.70;;;18.20;93.60;;;;;;10485145;28;20052;-36
2023/07/05 11:22:03;;;;;;;5.05;2.03;;;18.20;93.40;;;;;;10488356;28;20099;-33
2023/07/05 11:27:43;;;;;;;7.00;1.58;;;18.60;93.20;;;;;;10488284;28;20059;-33
2023/07/05 11:33:13;;;;;;;10.90;2.47;;;18.80;92.00;;;;;;10495872;28;20485;-33
2023/07/05 11:38:54;;;;;;;12.45;2.08;;;19.00;92.20;;;;;;10495004;28;20048;-38
2023/07/05 11:44:01;;;;;;;6.43;2.25;;;19.40;88.40;;;;;;10500458;28;20136;-30
2023/07/05 11:49:23;;;;;;;9.27;1.83;;;19.40;90.60;;;;;;10496042;28;20042;-36
2023/07/05 11:54:33;;;;;;;4.88;1.50;;;19.00;90.20;;;;;;10498671;28;20052;-37
2023/07/05 11:59:42;;;;;;;19.52;1.92;;;19.50;90.00;;;;;;10499352;28;20044;-35
2023/07/05 12:04:46;;;;;;;8.95;2.35;;;19.60;90.60;;;;;;10494387;28;20058;-35
2023/07/05 12:09:48;;;;;;;8.75;2.00;;;19.80;88.90;;;;;;10485593;28;20059;-35
2023/07/05 12:14:52;;;;;;;5.38;1.80;;;19.70;90.00;;;;;;10493536;28;20053;-36
2023/07/05 12:19:57;;;;;;;7.00;1.95;;;19.20;91.00;;;;;;10489943;28;20060;-33
2023/07/05 12:25:00;;;;;;;11.82;2.15;;;19.60;90.60;;;;;;10499441;28;20135;-37
2023/07/05 12:30:04;;;;;;;9.27;2.47;;;19.00;92.70;;;;;;10497139;28;20129;-35
2023/07/05 12:35:15;;;;;;;10.00;3.00;;;19.60;91.70;;;;;;10494794;28;20050;-30
2023/07/05 12:40:30;;;;;;;5.15;1.55;;;19.50;93.00;;;;;;10502656;28;20442;-36
2023/07/05 12:45:35;;;;;;;9.55;1.42;;;20.40;87.20;;;;;;10476493;28;20506;-37
2023/07/05 12:50:37;;;;;;;6.97;2.22;;;20.30;85.90;;;;;;10498824;28;20659;-33
2023/07/05 12:55:40;;;;;;;6.50;1.73;;;20.50;85.80;;;;;;10507197;28;20519;-36
2023/07/05 13:00:51;;;;;;;7.03;1.70;;;19.60;89.50;;;;;;10500056;28;20139;-33
2023/07/05 13:05:53;;;;;;;5.43;1.98;;;19.70;91.80;;;;;;10497720;28;20139;-34
2023/07/05 13:10:56;;;;;;;12.98;1.83;;;19.60;93.30;;;;;;10511288;28;20136;-32
2023/07/05 13:16:14;;;;;;;10.10;1.98;;;19.80;92.50;;;;;;10487799;28;20453;-35
2023/07/05 13:21:16;;;;;;;5.30;1.73;;;19.30;92.70;;;;;;10491342;28;20044;-34
2023/07/05 13:26:29;;;;;;;6.88;2.03;;;20.20;90.00;;;;;;10511193;28;20561;-34
2023/07/05 13:31:33;;;;;;;6.97;1.95;;;20.60;87.20;;;;;;10488329;28;20127;-34
2023/07/05 13:36:34;;;;;;;5.32;1.73;;;21.10;80.20;;;;;;10497174;28;20501;-38
2023/07/05 13:41:37;;;;;;;10.80;2.22;;;20.30;84.10;;;;;;10481541;28;20041;-38
2023/07/05 13:46:41;;;;;;;5.57;1.60;;;21.30;80.60;;;;;;10500122;28;20040;-37
2023/07/05 13:51:46;;;;;;;7.97;1.60;;;20.60;81.70;;;;;;10491372;28;20048;-40
2023/07/05 13:56:48;;;;;;;6.78;2.30;;;21.00;83.10;;;;;;10473285;28;20456;-34
2023/07/05 14:01:52;;;;;;;10.13;2.25;;;21.10;83.40;;;;;;10490210;28;20109;-39
2023/07/05 14:06:55;;;;;;;6.07;1.90;;;21.00;86.20;;;;;;10485148;28;20072;-35
2023/07/05 14:11:56;;;;;;;8.45;2.00;;;21.00;85.50;;;;;;10482543;28;20643;-35
2023/07/05 14:17:00;;;;;;;4.65;1.85;;;20.90;88.40;;;;;;10496635;28;20487;-37
2023/07/05 14:22:02;;;;;;;9.43;1.77;;;20.90;83.80;;;;;;10485307;28;20106;-39
2023/07/05 14:27:04;;;;;;;5.78;1.67;;;21.50;77.00;;;;;;10490412;28;20128;-35
2023/07/05 14:32:10;;;;;;;6.60;1.55;;;21.90;74.30;;;;;;10491340;28;20072;-37
2023/07/05 14:37:12;;;;;;;9.73;1.88;;;21.30;80.80;;;;;;10489368;28;20044;-36
2023/07/05 14:42:15;;;;;;;9.77;2.08;;;21.30;80.60;;;;;;10478235;28;20139;-38
2023/07/05 14:47:18;;;;;;;7.57;1.80;;;21.00;87.20;;;;;;10493356;28;20115;-35
2023/07/05 14:52:21;;;;;;;7.13;2.85;;;21.10;85.60;;;;;;10483948;28;20050;-37
2023/07/05 14:57:23;;;;;;;7.53;2.10;;;21.30;84.00;;;;;;10489093;28;20132;-35
2023/07/05 15:02:26;;;;;;;5.55;1.27;;;21.50;81.20;;;;;;10481988;28;20548;-33
2023/07/05 15:07:28;;;;;;;11.20;2.10;;;21.70;79.00;;;;;;10491377;28;20041;-34
2023/07/05 15:12:30;;;;;;;;;;;21.10;81.90;;;;;;10488992;28;20053;-38
2023/07/05 15:17:33;;;;;;;12.63;2.37;;;21.20;82.60;;;;;;10478123;28;19982;-36
2023/07/05 15:22:35;;;;;;;7.00;2.13;;;21.90;79.10;;;;;;10488039;28;20429;-35
2023/07/05 15:27:37;;;;;;;4.32;1.65;;;21.50;81.00;;;;;;10484189;28;20421;-33
2023/07/05 15:32:41;;;;;;;9.43;1.88;;;21.40;82.70;;;;;;10489255;28;20037;-37
2023/07/05 15:37:43;;;;;;;5.65;1.50;;;21.00;83.70;;;;;;10485187;28;20543;-33
2023/07/05 15:42:47;;;;;;;8.88;2.70;;;21.30;82.50;;;;;;10486539;28;20080;-40
2023/07/05 15:47:50;;;;;;;5.07;1.63;;;21.60;78.10;;;;;;10489657;28;20056;-30
2023/07/05 15:52:52;;;;;;;4.22;1.52;;;22.80;73.30;;;;;;10485128;28;20059;-33
2023/07/05 15:57:57;;;;;;;7.75;1.83;;;22.80;72.00;;;;;;10486582;28;20676;-32
2023/07/05 16:03:00;;;;;;;5.25;2.05;;;22.20;75.40;;;;;;10481955;28;20036;-33
2023/07/05 16:08:05;;;;;;;5.97;1.42;;;22.90;71.40;;;;;;10489283;28;20137;-36
2023/07/05 16:13:07;;;;;;;9.63;2.15;;;22.60;73.80;;;;;;10485441;28;20409;-35
2023/07/05 16:18:10;;;;;;;;;;;23.70;68.70;;;;;;10490669;28;20495;-36
2023/07/05 16:23:12;;;;;;;5.78;1.17;;;24.40;64.80;;;;;;10497155;28;19919;-33
2023/07/05 16:28:14;;;;;;;5.40;1.05;;;23.60;64.30;;;;;;10490584;28;20067;-34
2023/07/05 16:33:18;;;;;;;;;;;24.20;65.30;;;;;;10496495;28;20128;-36
2023/07/05 16:38:20;;;;;;;4.13;1.35;;;24.70;63.30;;;;;;10492783;28;20000;-43
2023/07/05 16:43:21;;;;;;;;;;;22.70;75.10;;;;;;10494237;28;20450;-35
2023/07/05 16:48:25;;;;;;;7.97;1.80;;;23.40;72.10;;;;;;10492920;28;20313;-35
2023/07/05 16:53:27;;;;;;;3.72;1.55;;;24.20;68.10;;;;;;10494374;28;20143;-34
2023/07/05 16:58:29;;;;;;;3.60;1.30;;;25.00;65.40;;;;;;10489746;28;20049;-34
2023/07/05 17:03:35;;;;;;;4.80;1.70;;;24.50;68.10;;;;;;10486858;28;20049;-37
2023/07/05 17:08:38;;;;;;;2.60;1.27;;;24.90;65.30;;;;;;10497916;28;20451;-34
2023/07/05 17:13:40;;;;;;;3.55;1.25;;;25.00;64.20;;;;;;10486569;28;20495;-37
2023/07/05 17:18:44;;;;;;;3.00;1.23;;;24.80;62.50;;;;;;10495180;28;20037;-40
2023/07/05 17:23:45;;;;;;;6.00;1.50;;;25.10;65.50;;;;;;10492173;28;20049;-35
2023/07/05 17:28:48;;;;;;;6.05;1.67;;;24.00;64.80;;;;;;10491230;28;20068;-37
2023/07/05 17:33:52;;;;;;;4.50;1.63;;;23.40;66.50;;;;;;10491888;28;20141;-35
2023/07/05 17:38:56;;;;;;;5.95;2.17;;;23.40;75.80;;;;;;10493542;28;20047;-37
2023/07/05 17:43:59;;;;;;;10.60;2.15;;;22.80;77.30;;;;;;10493208;28;20106;-36
2023/07/05 17:49:03;;;;;;;7.07;1.63;;;22.20;80.50;;;;;;10498007;28;20500;-37
2023/07/05 17:54:06;;;;;;;8.15;2.03;;;23.70;72.70;;;;;;10493241;28;20057;-38
2023/07/05 17:59:09;;;;;;;9.43;1.77;;;22.70;75.70;;;;;;10488108;28;20792;-33
2023/07/05 18:04:13;;;;;;;17.95;2.78;;;20.10;88.80;;;;;;10498736;28;20048;-31
2023/07/05 18:09:14;;;;;;;11.18;2.00;;;18.40;99.90;;;;;;10493446;28;20132;-34
2023/07/05 18:14:16;;;;;;;13.43;3.13;;;20.00;99.10;;;;;;10488978;28;20609;-34
2023/07/05 18:19:20;;;;;;;23.75;3.67;;;20.70;96.50;;;;;;10479619;28;20033;-33
2023/07/05 18:24:22;;;;;;;16.45;2.38;;;19.60;99.90;;;;;;10488767;28;20047;-36
2023/07/05 18:29:24;;;;;;;9.50;1.98;;;20.60;97.60;;;;;;10474107;28;20046;-38
2023/07/05 18:34:27;;;;;;;10.70;2.00;;;21.90;93.40;;;;;;10487900;28;20182;-38
2023/07/05 18:39:30;;;;;;;8.65;1.40;;;22.60;86.70;;;;;;10491560;28;20127;-39
2023/07/05 18:44:31;;;;;;;8.55;1.30;;;21.90;90.40;;;;;;10489809;28;20131;-38
2023/07/05 18:49:35;;;;;;;2.88;1.10;;;22.30;85.20;;;;;;10499458;28;20184;-39
2023/07/05 18:54:36;;;;;;;2.92;1.00;;;23.70;73.30;;;;;;10487835;28;20087;-39
2023/07/05 18:59:39;;;;;;;4.88;1.35;;;22.50;80.20;;;;;;10499504;28;20676;-40
2023/07/05 19:04:44;;;;;;;2.35;1.33;;;22.90;76.30;;;;;;10488454;28;20052;-42
2023/07/05 19:09:45;;;;;;;2.22;1.10;;;22.00;84.70;;;;;;10488338;28;20124;-38
2023/07/05 19:14:47;;;;;;;3.33;0.88;;;22.40;81.90;;;;;;10486533;28;20560;-35
2023/07/05 19:19:50;;;;;;;2.83;1.13;;;23.60;72.80;;;;;;10493014;28;20045;-34
2023/07/05 19:24:52;;;;;;;3.42;1.40;;;24.00;70.00;;;;;;10491077;28;20047;-34
2023/07/05 19:29:54;;;;;;;5.40;1.25;;;23.00;74.30;;;;;;10477803;28;20388;-34
2023/07/05 19:34:58;;;;;;;3.90;1.10;;;22.10;81.70;;;;;;10470578;28;20594;-34
2023/07/05 19:40:00;;;;;;;2.83;1.20;;;21.70;85.80;;;;;;10485400;28;20048;-35
2023/07/05 19:45:03;;;;;;;6.03;1.80;;;21.80;84.80;;;;;;10478739;28;20132;-33
2023/07/05 19:50:07;;;;;;;8.85;2.10;;;20.90;91.80;;;;;;10484433;28;20098;-34
2023/07/05 19:55:10;;;;;;;4.40;1.48;;;20.20;94.10;;;;;;10491825;28;20074;-36
2023/07/05 20:00:14;;;;;;;5.22;1.40;;;20.80;92.50;;;;;;10491228;28;20404;-33
2023/07/05 20:05:17;;;;;;;5.38;1.77;;;22.20;81.40;;;;;;10485531;28;20483;-35
2023/07/05 20:10:19;;;;;;;8.27;2.38;;;21.80;85.40;;;;;;10491553;28;20090;-35
2023/07/05 20:15:21;;;;;;;5.13;1.42;;;19.70;95.60;;;;;;10490207;28;20157;-36
2023/07/05 20:20:24;;;;;;;9.45;1.73;;;21.10;90.10;;;;;;10498756;28;20098;-40
2023/07/05 20:25:28;;;;;;;10.60;1.80;;;20.60;92.00;;;;;;10493920;28;20098;-42
2023/07/05 20:30:30;;;;;;;5.88;1.55;;;20.50;91.80;;;;;;10489569;28;20463;-32
2023/07/05 20:35:33;;;;;;;4.35;1.42;;;20.40;92.30;;;;;;10488900;28;20135;-34
2023/07/05 20:40:35;;;;;;;3.92;1.70;;;21.00;89.40;;;;;;10490766;28;20628;-36
2023/07/05 20:45:37;;;;;;;16.85;2.28;;;20.10;94.40;;;;;;10500604;28;20094;-36
2023/07/05 20:50:40;;;;;;;3.05;1.60;;;20.50;91.90;;;;;;10490345;28;20071;-34
2023/07/05 20:55:42;;;;;;;3.83;1.75;;;20.40;92.80;;;;;;10495087;28;20769;-36
2023/07/05 21:00:43;;;;;;;10.23;2.10;;;20.20;92.90;;;;;;10487339;28;20127;-33
2023/07/05 21:05:47;;;;;;;6.80;1.75;;;20.90;88.20;;;;;;10491678;28;20131;-34
2023/07/05 21:10:51;;;;;;;5.53;1.80;;;21.00;87.80;;;;;;10495214;28;20083;-35
2023/07/05 21:16:00;;;;;;;3.33;1.63;;;21.50;81.70;;;;;;10489519;28;20048;-33
2023/07/05 21:21:04;;;;;;;3.72;1.48;;;22.20;76.60;;;;;;10506757;28;20062;-38
2023/07/05 21:26:08;;;;;;;4.90;2.38;;;22.70;71.80;;;;;;10500757;28;20132;-38
2023/07/05 21:31:11;;;;;;;3.53;1.98;;;23.00;68.80;;;;;;10493504;28;20103;-37
2023/07/05 21:36:14;;;;;;;4.45;2.08;;;22.80;70.80;;;;;;10482113;28;20041;-34
2023/07/05 21:41:17;;;;;;;6.05;2.17;;;22.40;71.70;;;;;;10503408;28;20044;-34
2023/07/05 21:46:19;;;;;;;6.32;2.22;;;21.00;83.70;;;;;;10468320;28;20485;-35
2023/07/05 21:51:23;;;;;;;6.18;2.33;;;20.30;90.80;;;;;;10494179;28;20048;-34
2023/07/05 21:56:29;;;;;;;13.80;2.88;;;20.90;86.30;;;;;;10488886;28;20048;-33
2023/07/05 22:01:30;;;;;;;8.00;1.88;;;21.30;81.80;;;;;;10474509;28;20490;-36
2023/07/05 22:06:34;;;;;;;4.97;2.47;;;22.20;74.10;;;;;;10480050;28;20421;-34
2023/07/05 22:11:36;;;;;;;4.03;2.10;;;23.10;68.80;;;;;;10485233;28;20059;-38
2023/07/05 22:16:37;;;;;;;5.32;2.15;;;23.70;65.10;;;;;;10481462;28;20135;-33
2023/07/05 22:21:46;;;;;;;5.15;2.30;;;23.70;64.30;;;;;;10483996;28;20075;-33
2023/07/05 22:26:49;;;;;;;6.63;2.58;;;23.90;63.30;;;;;;10485748;28;20145;-34
2023/07/05 22:31:50;;;;;;;5.40;2.28;;;24.00;62.90;;;;;;10491033;28;20059;-34
2023/07/05 22:36:54;;;;;;;4.32;1.88;;;24.00;62.60;;;;;;10489338;28;20055;-34
2023/07/05 22:41:55;;;;;;;5.50;2.70;;;24.10;62.90;;;;;;10483861;28;20052;-34
2023/07/05 22:47:01;;;;;;;4.43;2.33;;;24.00;62.10;;;;;;10484197;28;20128;-34
2023/07/05 22:52:05;;;;;;;6.93;2.78;;;23.80;62.60;;;;;;10484205;28;20772;-34
2023/07/05 22:57:07;;;;;;;10.43;2.83;;;23.40;64.20;;;;;;10490654;28;20052;-36
2023/07/05 23:02:09;;;;;;;5.35;2.47;;;22.10;71.50;;;;;;10494387;28;20041;-38
2023/07/05 23:07:13;;;;;;;13.75;3.00;;;22.40;71.00;;;;;;10491516;28;20060;-36
2023/07/05 23:12:16;;;;;;;5.95;2.45;;;22.10;73.60;;;;;;10479002;28;20131;-35
2023/07/05 23:17:18;;;;;;;14.82;2.72;;;22.80;67.90;;;;;;10492434;28;20447;-34
2023/07/05 23:22:21;;;;;;;5.68;2.50;;;22.60;71.40;;;;;;10483850;28;20080;-33
2023/07/05 23:27:23;;;;;;;5.68;2.30;;;22.10;71.20;;;;;;10500282;28;20131;-35
2023/07/05 23:32:25;;;;;;;7.88;2.47;;;22.60;69.40;;;;;;10497752;28;20046;-35
2023/07/05 23:37:28;;;;;;;6.53;2.95;;;22.20;74.10;;;;;;10493977;28;20080;-34
2023/07/05 23:42:30;;;;;;;7.45;2.40;;;21.40;81.10;;;;;;10491361;28;20036;-37
2023/07/05 23:47:32;;;;;;;11.05;2.97;;;20.90;80.90;;;;;;10494292;28;20553;-33
2023/07/05 23:52:36;;;;;;;;;;;20.70;83.70;;;;;;10494880;28;20047;-33
2023/07/05 23:57:38;;;;;;;12.35;2.58;;;19.80;96.00;;;;;;10492959;28;19931;-35
